DON PEDRO RESERVOIR (DNP)

Elevation: 830' · TUOLUMNE R basin · Operator: Turlock Irrigation District

Provisional data, subject to change.
Query executed Saturday at 9:56:34   clock

Select a sensor type for a plot of data.
Note: Reservoir Flows are daily averages.

Earlier

Date RES ELE    STORAGE    RES CHG    TOC STO    ABV TOC    OUTFLOW    INFLOW    PPT INC   
 FEET   AF   AF   AF   AF   CFS   CFS   INCHES  
06/05/2015 702.39 818278 -3312 2030000 -- 1879 543 0.00
06/06/2015 702.18 816955 -1652 2030000 -- 1370 703 0.00
06/07/2015 702.01 815634 -660 2030000 -1214696 1316 650 0.00
06/08/2015 701.85 814974 -2309 2030000 -1215026 1213 940 0.00
06/09/2015 701.77 814314 -1319 2030000 -1215686 879 547 0.00
06/10/2015 701.56 812995 -2306 2030000 -1217005 1338 673 0.00
06/11/2015 701.05 809706 -4274 2030000 -1220294 2219 561 0.00
06/12/2015 700.76 807736 -3281 2030000 -- 1459 466 0.00
06/13/2015 700.48 805770 -1636 2030000 -- 1522 531 0.00
06/14/2015 700.15 803807 -2573 2030000 -1227784 1472 482 0.00
06/15/2015 699.80 800628 -2853 2030000 -1229372 1377 -226 0.00
06/16/2015 699.36 798023 -2930 2030000 -- 1691 378 0.00
06/17/2015 698.92 794775 -3572 2030000 -1235225 1591 -47 0.00
06/18/2015 698.55 793478 -2593 2030000 -1236522 1472 818 0.00
06/19/2015 698.05 790242 -4528 2030000 -- 1811 180 0.00
06/20/2015 697.68 787660 -2579 2030000 -- 1542 241 0.00
06/21/2015 697.23 784440 -2895 2030000 -- 1584 -39 0.00
06/22/2015 696.78 781229 -3532 2030000 -- 1631 12 0.00
06/23/2015 696.46 779947 -2243 2030000 -1250053 1212 566 0.00
06/24/2015 695.92 775471 -4476 2030000 -1254529 1933 -324 0.00
06/25/2015 695.37 772284 -3823 2030000 -1257716 2235 628 0.00
06/26/2015 694.75 768472 -4446 2030000 -- 2342 420 0.00
06/27/2015 694.20 765305 -3166 2030000 -- 1528 -69 0.00
06/28/2015 693.73 762146 -2210 2030000 -- 1968 375 0.00
06/29/2015 693.25 758996 -3779 2030000 -1271004 1729 141 0.00
06/30/2015 692.82 755855 -2827 2030000 -1274145 1737 153 0.00
07/01/2015 692.23 752723 -3445 2030000 -1277277 2165 586 0.00
07/02/2015 691.75 749911 -2812 -- -- -- -- --
07/03/2015 691.50 748352 -1559 -- -- -- -- --
07/04/2015 -- -- -- -- -- -- -- --

Later | Latest

Warning! This data is preliminary and subject to revision.

Show DNP Map | Plot DNP Data | 1 Month DNP Data | Real-Time DNP Data | DNP Info